Bogalusa, Louisiana
Current Conditions -  °F | °C
As of 3:53 PM on Tuesday 21 Oct 2014 (Local Time) from KASD Reporting Station
Clear Clear  
Wind Chill: 82°   Ceiling: Unl
Heat Index: 82°   Visibility: 10mi
Dew Point: 53°   Wind: 5mph
Humidity: 37%   Direction: 40°NE
Pressure: 29.97"   Gusts: NA
Location:  30.79°N, 89.86°W
Report Text: KASD 212053Z AUTO 04004KT 10SM CLR 28/12 A2997 RMK AO2 SLP150 T02780117 56019
Loading
Personal Weather Stations






























Interactive Weather Map
Tropical Storm Tracking
New forecast layout! Learn more

10-Day Weather Forecast

Advertisements
Track Severe Weather on mobile